createdAt,value
2019-04-21T00:00:06.222Z,27.77
2019-04-21T00:02:34.483Z,28.13
2019-04-21T00:05:20.026Z,29.00
2019-04-21T00:07:42.350Z,29.30
2019-04-21T00:10:23.499Z,28.50
2019-04-21T00:12:40.487Z,27.80
2019-04-21T00:15:07.394Z,26.93
2019-04-21T00:17:26.985Z,28.93
2019-04-21T00:20:09.077Z,27.30
2019-04-21T00:22:40.506Z,27.83
2019-04-21T00:25:11.833Z,27.00
2019-04-21T00:27:42.914Z,24.03
2019-04-21T00:30:17.308Z,24.60
2019-04-21T00:32:31.997Z,26.47
2019-04-21T00:34:59.012Z,23.90
2019-04-21T00:37:30.152Z,25.13
2019-04-21T00:40:09.436Z,24.57
2019-04-21T00:42:37.351Z,25.70
2019-04-21T00:45:03.508Z,26.33
2019-04-21T00:47:34.095Z,24.30
2019-04-21T00:50:08.054Z,25.70
2019-04-21T00:57:58.509Z,22.30
2019-04-21T01:02:56.191Z,21.80
2019-04-21T01:05:21.345Z,21.87
2019-04-21T01:07:50.732Z,21.10
2019-04-21T01:10:09.439Z,20.40
2019-04-21T01:12:53.571Z,20.60
2019-04-21T01:15:26.107Z,21.47
2019-04-21T01:17:46.020Z,21.27
2019-04-21T01:20:08.158Z,21.20
2019-04-21T01:22:23.596Z,22.00
2019-04-21T01:25:01.318Z,22.60
2019-04-21T01:27:33.578Z,22.07
2019-04-21T01:30:14.419Z,22.37
2019-04-21T01:32:46.838Z,21.57
2019-04-21T01:35:10.295Z,21.30
2019-04-21T01:37:43.831Z,20.87
2019-04-21T01:40:14.352Z,22.70
2019-04-21T01:42:32.704Z,21.23
2019-04-21T01:45:04.373Z,18.87
2019-04-21T01:47:28.598Z,19.50
2019-04-21T01:49:52.763Z,18.90
2019-04-21T01:52:38.451Z,20.10
2019-04-21T01:55:08.358Z,18.03
2019-04-21T01:57:34.503Z,17.67
2019-04-21T01:59:57.339Z,18.63
2019-04-21T02:02:36.445Z,18.43
2019-04-21T02:05:10.534Z,18.30
2019-04-21T02:07:35.866Z,19.23
2019-04-21T02:10:04.821Z,19.30
2019-04-21T02:12:33.458Z,19.90
2019-04-21T02:15:04.871Z,19.00
2019-04-21T02:17:29.269Z,19.60
2019-04-21T02:19:56.454Z,20.10
2019-04-21T02:22:35.232Z,20.20
2019-04-21T02:25:06.372Z,21.03
2019-04-21T02:27:26.162Z,18.57
2019-04-21T02:30:03.468Z,20.97
2019-04-21T02:32:42.122Z,19.33
2019-04-21T02:40:04.632Z,21.03
2019-04-21T02:42:32.412Z,19.93
2019-04-21T02:44:59.847Z,20.37
2019-04-21T02:47:41.725Z,20.20
2019-04-21T02:52:31.024Z,19.40
2019-04-21T02:54:53.988Z,20.70
2019-04-21T02:57:23.304Z,20.20
2019-04-21T03:00:00.047Z,21.97
2019-04-21T03:02:52.566Z,20.17
2019-04-21T03:07:51.391Z,21.30
2019-04-21T03:12:38.534Z,23.20
2019-04-21T03:15:17.502Z,22.80
2019-04-21T03:17:43.861Z,20.63
2019-04-21T03:20:10.522Z,20.77
2019-04-21T03:22:31.557Z,19.27
2019-04-21T03:27:50.244Z,20.90
2019-04-21T03:30:14.286Z,20.43
2019-04-21T03:33:12.991Z,21.47
2019-04-21T03:37:30.732Z,22.40
2019-04-21T03:40:01.186Z,22.40
2019-04-21T03:42:34.499Z,23.50
2019-04-21T03:50:08.873Z,22.27
2019-04-21T03:52:39.440Z,21.60
2019-04-21T03:55:41.438Z,23.40
2019-04-21T03:57:58.028Z,21.73
2019-04-21T04:00:20.883Z,20.80
2019-04-21T04:03:13.348Z,21.10
2019-04-21T04:06:02.069Z,20.73
2019-04-21T04:08:38.986Z,22.90
2019-04-21T04:13:27.625Z,21.33
2019-04-21T04:18:28.292Z,21.13
2019-04-21T04:20:42.492Z,22.07
2019-04-21T04:23:20.221Z,21.63
2019-04-21T04:25:53.651Z,21.67
2019-04-21T04:28:25.726Z,21.40
2019-04-21T04:30:45.913Z,20.87
2019-04-21T04:33:20.686Z,21.57
2019-04-21T04:35:52.831Z,21.77
2019-04-21T04:40:55.554Z,22.30
2019-04-21T04:45:48.228Z,25.93
2019-04-21T04:48:10.906Z,25.00
2019-04-21T04:50:49.704Z,25.70
2019-04-21T04:53:20.767Z,25.40
2019-04-21T05:00:43.112Z,30.53
2019-04-21T05:03:12.499Z,30.67
2019-04-21T05:06:10.070Z,33.10
2019-04-21T05:08:43.893Z,32.40
2019-04-21T05:11:24.002Z,33.37
2019-04-21T05:13:27.989Z,34.30
2019-04-21T05:15:55.479Z,31.93
2019-04-21T05:18:26.586Z,31.20
2019-04-21T05:20:55.465Z,30.80
2019-04-21T05:23:11.958Z,31.27
2019-04-21T05:25:38.918Z,30.90
2019-04-21T05:28:04.855Z,29.80
2019-04-21T05:30:52.022Z,31.20
2019-04-21T05:33:34.557Z,34.10
2019-04-21T05:35:57.240Z,34.47
2019-04-21T05:38:28.304Z,34.47
2019-04-21T05:40:52.384Z,33.43
2019-04-21T05:43:29.496Z,34.57
2019-04-21T05:46:01.229Z,33.83
2019-04-21T05:48:33.634Z,32.73
2019-04-21T05:50:54.687Z,34.53
2019-04-21T05:53:34.399Z,32.50
2019-04-21T05:55:56.930Z,32.70
2019-04-21T05:58:30.195Z,32.77
2019-04-21T06:03:34.251Z,33.70
2019-04-21T06:08:28.633Z,32.67
2019-04-21T06:11:02.072Z,35.83
2019-04-21T06:13:26.800Z,37.57
2019-04-21T06:18:28.442Z,32.70
2019-04-21T06:20:54.685Z,34.63
2019-04-21T06:23:18.113Z,32.50
2019-04-21T06:26:04.291Z,33.80
2019-04-21T06:28:19.257Z,33.80
2019-04-21T06:31:01.446Z,33.87
2019-04-21T06:33:19.866Z,33.93
2019-04-21T06:36:21.616Z,31.37
2019-04-21T06:38:39.565Z,31.43
2019-04-21T06:40:55.797Z,32.37
2019-04-21T06:43:39.950Z,34.93
2019-04-21T06:45:58.922Z,34.20
2019-04-21T06:48:21.028Z,30.23
2019-04-21T06:50:52.606Z,32.03
2019-04-21T06:53:20.845Z,32.00
2019-04-21T06:55:46.807Z,29.17
2019-04-21T06:58:13.156Z,30.23
2019-04-21T07:00:45.558Z,27.90
2019-04-21T07:03:29.781Z,28.83
2019-04-21T07:05:48.752Z,28.23
2019-04-21T07:08:28.123Z,27.37
2019-04-21T07:10:39.864Z,28.70
2019-04-21T07:13:03.246Z,30.00
2019-04-21T07:15:38.770Z,27.67
2019-04-21T07:18:04.396Z,31.80
2019-04-21T07:20:38.022Z,29.93
2019-04-21T07:23:13.723Z,31.67
2019-04-21T07:25:32.759Z,29.83
2019-04-21T07:28:03.056Z,31.43
2019-04-21T07:33:24.050Z,29.60
2019-04-21T07:35:31.784Z,28.80
2019-04-21T07:37:59.331Z,29.20
2019-04-21T07:40:25.928Z,29.57
2019-04-21T07:42:51.466Z,28.77
2019-04-21T07:45:22.395Z,27.60
2019-04-21T07:48:03.159Z,28.00
2019-04-21T07:50:51.683Z,27.20
2019-04-21T07:53:30.297Z,26.50
2019-04-21T07:55:32.525Z,25.23
2019-04-21T07:58:20.957Z,26.77
2019-04-21T08:00:56.324Z,25.70
2019-04-21T08:03:19.547Z,27.77
2019-04-21T08:05:45.784Z,28.10
2019-04-21T08:08:12.148Z,28.43
2019-04-21T08:10:47.432Z,27.13
2019-04-21T08:13:22.094Z,26.87
2019-04-21T08:15:44.140Z,26.53
2019-04-21T08:18:13.464Z,24.60
2019-04-21T08:20:34.922Z,22.43
2019-04-21T08:23:13.016Z,21.60
2019-04-21T08:25:49.078Z,24.70
2019-04-21T08:28:05.919Z,24.90
2019-04-21T08:30:36.583Z,22.50
2019-04-21T08:35:59.448Z,20.67
2019-04-21T08:38:02.078Z,23.17
2019-04-21T08:40:39.381Z,23.13
2019-04-21T08:43:01.142Z,23.10
2019-04-21T08:45:35.937Z,23.37
2019-04-21T08:48:00.343Z,22.33
2019-04-21T08:50:25.489Z,21.90
2019-04-21T08:53:02.354Z,21.60
2019-04-21T08:55:32.170Z,21.93
2019-04-21T08:58:27.716Z,21.00
2019-04-21T09:00:56.254Z,24.43
2019-04-21T09:03:43.407Z,23.03
2019-04-21T09:06:13.746Z,21.83
2019-04-21T09:08:42.272Z,20.50
2019-04-21T09:11:05.308Z,18.30
2019-04-21T09:13:36.973Z,18.57
2019-04-21T09:16:06.799Z,17.90
2019-04-21T09:18:35.542Z,15.80
2019-04-21T09:21:07.257Z,15.53
2019-04-21T09:23:36.452Z,15.57
2019-04-21T09:26:05.581Z,16.80
2019-04-21T09:28:25.572Z,15.87
2019-04-21T09:30:48.883Z,14.93
2019-04-21T09:33:12.285Z,14.87
2019-04-21T09:35:47.364Z,14.00
2019-04-21T09:38:19.582Z,13.07
2019-04-21T09:40:45.448Z,13.17
2019-04-21T09:43:10.310Z,9.40
2019-04-21T09:45:35.687Z,9.40
2019-04-21T09:48:11.321Z,7.77
2019-04-21T09:50:34.508Z,8.90
2019-04-21T09:53:12.908Z,10.70
2019-04-21T09:55:37.450Z,9.10
2019-04-21T09:58:10.107Z,9.23
2019-04-21T10:00:31.387Z,9.93
2019-04-21T10:03:02.917Z,9.27
2019-04-21T10:05:27.314Z,9.20
2019-04-21T10:07:55.247Z,8.70
2019-04-21T10:10:23.124Z,9.40
2019-04-21T10:12:51.884Z,8.67
2019-04-21T10:15:21.987Z,9.03
2019-04-21T10:17:50.037Z,8.80
2019-04-21T10:20:17.471Z,8.30
2019-04-21T10:22:44.841Z,8.33
2019-04-21T10:25:12.709Z,7.87
2019-04-21T10:27:41.186Z,9.47
2019-04-21T10:30:09.985Z,9.00
2019-04-21T10:32:38.659Z,9.20
2019-04-21T10:35:07.458Z,8.27
2019-04-21T10:37:47.381Z,8.90
2019-04-21T10:40:07.552Z,8.60
2019-04-21T10:42:35.476Z,9.00
2019-04-21T10:45:03.423Z,9.97
2019-04-21T10:47:31.294Z,8.50
2019-04-21T10:49:58.684Z,9.57
2019-04-21T10:52:44.862Z,9.43
2019-04-21T10:55:32.390Z,8.90
2019-04-21T10:57:44.313Z,8.77
2019-04-21T11:00:12.644Z,8.57
2019-04-21T11:02:48.865Z,8.30
2019-04-21T11:05:16.767Z,8.07
2019-04-21T11:08:08.109Z,8.53
2019-04-21T11:10:24.092Z,8.07
2019-04-21T11:12:52.508Z,8.67
2019-04-21T11:15:21.194Z,8.03
2019-04-21T11:17:49.216Z,7.57
2019-04-21T11:20:19.093Z,7.73
2019-04-21T11:22:47.310Z,8.90
2019-04-21T11:25:15.796Z,8.67
2019-04-21T11:27:43.605Z,8.60
2019-04-21T11:30:13.639Z,8.53
2019-04-21T11:32:43.305Z,8.43
2019-04-21T11:35:10.131Z,8.20
2019-04-21T11:37:37.908Z,8.30
2019-04-21T11:40:10.814Z,8.90
2019-04-21T11:42:39.733Z,7.83
2019-04-21T11:45:08.367Z,9.47
2019-04-21T11:47:43.373Z,8.73
2019-04-21T11:50:10.946Z,9.53
2019-04-21T11:52:38.888Z,8.97
2019-04-21T11:55:06.850Z,8.30
2019-04-21T11:57:39.236Z,8.70
2019-04-21T12:00:03.937Z,8.53
2019-04-21T12:02:31.386Z,9.17
2019-04-21T12:04:59.249Z,7.63
2019-04-21T12:07:27.228Z,8.80
2019-04-21T12:09:55.514Z,7.87
2019-04-21T12:12:23.249Z,8.40
2019-04-21T12:14:50.561Z,7.97
2019-04-21T12:17:18.335Z,8.57
2019-04-21T12:19:46.174Z,8.43
2019-04-21T12:22:21.037Z,7.80
2019-04-21T12:24:43.027Z,7.50
2019-04-21T12:27:11.918Z,7.97
2019-04-21T12:29:39.921Z,8.20
2019-04-21T12:32:26.349Z,7.50
2019-04-21T12:34:55.231Z,8.13
2019-04-21T12:37:22.770Z,7.03
2019-04-21T12:39:50.545Z,7.47
2019-04-21T12:42:18.564Z,7.50
2019-04-21T12:44:47.442Z,8.20
2019-04-21T12:47:15.942Z,7.87
2019-04-21T12:49:43.785Z,6.67
2019-04-21T12:52:11.502Z,8.10
2019-04-21T12:54:39.620Z,8.03
2019-04-21T12:57:07.670Z,7.57
2019-04-21T12:59:36.329Z,6.87
2019-04-21T13:02:04.172Z,7.03
2019-04-21T13:04:31.634Z,7.90
2019-04-21T13:06:59.464Z,7.33
2019-04-21T13:09:29.167Z,7.50
2019-04-21T13:11:56.970Z,7.00
2019-04-21T13:14:24.533Z,7.53
2019-04-21T13:16:51.898Z,7.40
2019-04-21T13:19:19.164Z,7.57
2019-04-21T13:21:47.809Z,8.50
2019-04-21T13:24:15.945Z,8.00
2019-04-21T13:26:49.527Z,7.50
2019-04-21T13:29:12.447Z,7.90
2019-04-21T13:31:40.432Z,7.20
2019-04-21T13:34:08.278Z,7.77
2019-04-21T13:36:36.032Z,7.67
2019-04-21T13:39:44.379Z,7.20
2019-04-21T13:41:57.012Z,6.87
2019-04-21T13:44:15.627Z,7.00
2019-04-21T13:46:45.130Z,7.80
2019-04-21T13:49:13.699Z,7.53
2019-04-21T13:51:41.659Z,7.00
2019-04-21T13:54:09.621Z,7.97
2019-04-21T13:56:38.448Z,8.10
2019-04-21T13:59:06.538Z,8.50
2019-04-21T14:01:34.126Z,8.03
2019-04-21T14:04:01.945Z,6.90
2019-04-21T14:06:30.145Z,7.23
2019-04-21T14:08:58.935Z,6.97
2019-04-21T14:11:27.194Z,7.43
2019-04-21T14:13:54.661Z,7.50
2019-04-21T14:16:22.246Z,7.73
2019-04-21T14:18:49.760Z,7.03
2019-04-21T14:21:17.075Z,7.80
2019-04-21T14:23:47.554Z,7.47
2019-04-21T14:26:14.334Z,6.57
2019-04-21T14:28:42.963Z,6.50
2019-04-21T14:31:10.567Z,6.70
2019-04-21T14:33:38.220Z,5.73
2019-04-21T14:36:05.621Z,7.60
2019-04-21T14:38:34.346Z,7.93
2019-04-21T14:41:02.228Z,6.70
2019-04-21T14:43:30.087Z,6.43
2019-04-21T14:45:59.148Z,7.07
2019-04-21T14:48:41.170Z,6.70
2019-04-21T14:51:16.860Z,6.43
2019-04-21T14:53:56.190Z,8.40
2019-04-21T14:56:25.056Z,6.87
2019-04-21T14:58:55.542Z,6.97
2019-04-21T15:01:21.981Z,6.83
2019-04-21T15:03:50.001Z,7.33
2019-04-21T15:06:17.441Z,6.00
2019-04-21T15:08:44.969Z,7.00
2019-04-21T15:11:13.862Z,6.20
2019-04-21T15:13:41.791Z,7.07
2019-04-21T15:16:09.124Z,6.73
2019-04-21T15:18:36.866Z,6.67
2019-04-21T15:21:05.584Z,6.60
2019-04-21T15:23:33.970Z,6.80
2019-04-21T15:26:02.014Z,6.50
2019-04-21T15:28:32.080Z,7.40
2019-04-21T15:30:58.629Z,6.83
2019-04-21T15:33:26.583Z,7.33
2019-04-21T15:35:55.364Z,6.67
2019-04-21T15:38:22.877Z,7.20
2019-04-21T15:40:55.423Z,6.67
2019-04-21T15:43:20.337Z,6.00
2019-04-21T15:45:48.754Z,6.73
2019-04-21T15:48:16.220Z,6.60
2019-04-21T15:50:44.119Z,6.30
2019-04-21T15:53:19.377Z,6.43
2019-04-21T15:55:48.689Z,7.10
2019-04-21T15:58:18.695Z,6.70
2019-04-21T16:00:50.304Z,5.97
2019-04-21T16:03:18.466Z,5.80
2019-04-21T16:05:46.706Z,5.93
2019-04-21T16:08:14.298Z,6.43
2019-04-21T16:10:50.113Z,6.63
2019-04-21T16:13:11.802Z,5.87
2019-04-21T16:15:40.762Z,6.50
2019-04-21T16:18:08.285Z,6.10
2019-04-21T16:20:35.635Z,6.37
2019-04-21T16:23:04.456Z,6.63
2019-04-21T16:25:32.815Z,6.67
2019-04-21T16:28:01.424Z,6.10
2019-04-21T16:30:28.944Z,6.13
2019-04-21T16:32:56.427Z,6.00
2019-04-21T16:35:26.409Z,5.70
2019-04-21T16:37:55.919Z,6.23
2019-04-21T16:40:23.317Z,6.00
2019-04-21T16:42:52.057Z,6.30
2019-04-21T16:45:21.002Z,6.07
2019-04-21T16:47:51.730Z,5.87
2019-04-21T16:50:17.864Z,6.80
2019-04-21T16:52:52.162Z,6.10
2019-04-21T16:55:21.349Z,6.23
2019-04-21T16:58:01.745Z,5.40
2019-04-21T17:00:31.717Z,5.60
2019-04-21T17:02:56.748Z,6.80
2019-04-21T17:05:24.558Z,5.73
2019-04-21T17:07:52.941Z,5.40
2019-04-21T17:10:20.449Z,6.00
2019-04-21T17:12:48.109Z,5.90
2019-04-21T17:15:32.266Z,6.60
2019-04-21T17:18:06.110Z,6.10
2019-04-21T17:20:30.004Z,5.70
2019-04-21T17:22:43.848Z,6.00
2019-04-21T17:25:11.528Z,6.27
2019-04-21T17:27:39.024Z,5.90
2019-04-21T17:30:08.382Z,5.97
2019-04-21T17:32:42.108Z,5.63
2019-04-21T17:35:06.027Z,5.93
2019-04-21T17:37:34.120Z,5.73
2019-04-21T17:40:03.940Z,6.20
2019-04-21T17:42:39.788Z,6.30
2019-04-21T17:44:59.664Z,6.00
2019-04-21T17:47:38.407Z,6.33
2019-04-21T17:50:09.397Z,6.20
2019-04-21T17:53:00.834Z,5.80
2019-04-21T17:55:33.604Z,6.00
2019-04-21T17:58:14.950Z,5.87
2019-04-21T18:01:05.306Z,6.50
2019-04-21T18:03:28.080Z,6.00
2019-04-21T18:05:42.191Z,5.93
2019-04-21T18:08:21.591Z,5.53
2019-04-21T18:10:39.005Z,6.20
2019-04-21T18:13:01.362Z,5.60
2019-04-21T18:15:42.506Z,6.37
2019-04-21T18:17:52.420Z,6.30
2019-04-21T18:20:24.153Z,6.23
2019-04-21T18:22:54.929Z,6.27
2019-04-21T18:25:39.838Z,6.30
2019-04-21T18:27:56.543Z,6.03
2019-04-21T18:30:44.558Z,6.00
2019-04-21T18:33:21.378Z,6.73
2019-04-21T18:36:00.188Z,6.30
2019-04-21T18:39:04.072Z,6.90
2019-04-21T18:41:17.387Z,5.70
2019-04-21T18:44:15.269Z,5.87
2019-04-21T18:46:38.658Z,5.93
2019-04-21T18:49:04.624Z,6.77
2019-04-21T18:51:57.346Z,6.23
2019-04-21T18:54:36.009Z,6.30
2019-04-21T18:56:57.586Z,6.13
2019-04-21T18:59:21.211Z,6.60
2019-04-21T19:01:52.025Z,6.60
2019-04-21T19:04:20.493Z,6.60
2019-04-21T19:07:00.747Z,6.57
2019-04-21T19:09:35.282Z,7.30
2019-04-21T19:11:59.229Z,6.90
2019-04-21T19:14:31.649Z,6.00
2019-04-21T19:17:10.695Z,6.37
2019-04-21T19:22:00.154Z,5.90
2019-04-21T19:24:29.435Z,6.30
2019-04-21T19:27:00.335Z,6.53
2019-04-21T19:31:54.904Z,8.93
2019-04-21T19:34:14.301Z,6.93
2019-04-21T19:36:34.950Z,6.47
2019-04-21T19:39:12.838Z,6.77
2019-04-21T19:41:45.898Z,6.60
2019-04-21T19:44:24.804Z,6.37
2019-04-21T19:46:48.847Z,6.43
2019-04-21T19:49:24.169Z,6.87
2019-04-21T19:51:42.825Z,7.30
2019-04-21T19:54:09.354Z,6.83
2019-04-21T19:56:28.018Z,6.20
2019-04-21T19:58:55.304Z,7.97
2019-04-21T20:01:23.545Z,7.17
2019-04-21T20:03:55.353Z,7.10
2019-04-21T20:06:34.455Z,8.10
2019-04-21T20:09:08.363Z,7.77
2019-04-21T20:11:33.544Z,8.20
2019-04-21T20:14:35.676Z,6.43
2019-04-21T20:16:37.519Z,6.57
2019-04-21T20:18:52.900Z,6.50
2019-04-21T20:21:14.367Z,6.80
2019-04-21T20:23:43.239Z,6.30
2019-04-21T20:26:12.162Z,7.07
2019-04-21T20:28:49.286Z,6.70
2019-04-21T20:31:24.530Z,7.27
2019-04-21T20:34:00.044Z,7.50
2019-04-21T20:36:29.456Z,6.93
2019-04-21T20:38:47.034Z,7.40
2019-04-21T20:41:24.166Z,7.40
2019-04-21T20:43:51.291Z,7.07
2019-04-21T20:46:17.184Z,6.67
2019-04-21T20:48:48.113Z,6.50
2019-04-21T20:51:18.247Z,6.50
2019-04-21T20:53:46.505Z,7.30
2019-04-21T20:56:11.521Z,7.20
2019-04-21T20:58:45.274Z,6.57
2019-04-21T21:01:32.686Z,7.47
2019-04-21T21:03:46.040Z,6.80
2019-04-21T21:06:07.618Z,6.97
2019-04-21T21:08:40.215Z,8.30
2019-04-21T21:11:06.824Z,7.47
2019-04-21T21:13:44.376Z,8.10
2019-04-21T21:16:13.973Z,7.43
2019-04-21T21:18:59.598Z,6.63
2019-04-21T21:21:04.852Z,7.47
2019-04-21T21:23:40.263Z,7.77
2019-04-21T21:26:11.496Z,7.70
2019-04-21T21:28:36.943Z,7.97
2019-04-21T21:31:04.302Z,7.43
2019-04-21T21:33:39.495Z,7.17
2019-04-21T21:35:56.526Z,7.10
2019-04-21T21:38:31.539Z,7.30
2019-04-21T21:40:54.406Z,7.77
2019-04-21T21:43:18.918Z,8.20
2019-04-21T21:45:47.524Z,8.97
2019-04-21T21:48:28.971Z,9.10
2019-04-21T21:50:50.890Z,8.60
2019-04-21T21:53:13.534Z,8.83
2019-04-21T21:55:38.475Z,8.10
2019-04-21T21:58:08.012Z,8.43
2019-04-21T22:00:37.028Z,8.80
2019-04-21T22:03:14.866Z,8.50
2019-04-21T22:05:45.525Z,9.17
2019-04-21T22:08:04.601Z,9.57
2019-04-21T22:10:32.040Z,8.80
2019-04-21T22:13:06.794Z,8.77
2019-04-21T22:15:31.996Z,8.77
2019-04-21T22:18:19.504Z,8.97
2019-04-21T22:20:44.820Z,8.83
2019-04-21T22:23:02.092Z,9.50
2019-04-21T22:25:29.510Z,9.23
2019-04-21T22:27:53.694Z,9.50
2019-04-21T22:30:29.992Z,9.07
2019-04-21T22:32:57.097Z,9.63
2019-04-21T22:35:27.363Z,8.90
2019-04-21T22:38:01.812Z,9.20
2019-04-21T22:40:29.684Z,9.60
2019-04-21T22:42:59.373Z,9.13
2019-04-21T22:45:15.963Z,7.20
2019-04-21T22:47:45.115Z,8.57
2019-04-21T22:50:26.627Z,9.43
2019-04-21T22:52:59.495Z,8.57
2019-04-21T22:55:27.255Z,9.20
2019-04-21T22:57:56.336Z,8.77
2019-04-21T23:00:22.332Z,8.70
2019-04-21T23:02:53.981Z,9.20
2019-04-21T23:05:22.276Z,10.33
2019-04-21T23:07:54.612Z,10.20
2019-04-21T23:10:19.215Z,9.40
2019-04-21T23:12:47.943Z,9.20
2019-04-21T23:15:20.504Z,9.67
2019-04-21T23:17:59.506Z,10.07
2019-04-21T23:20:34.561Z,9.80
2019-04-21T23:23:08.340Z,9.60
2019-04-21T23:25:33.227Z,9.30
2019-04-21T23:28:02.802Z,9.23
2019-04-21T23:30:39.120Z,8.40
2019-04-21T23:32:50.514Z,9.47
2019-04-21T23:35:19.767Z,9.20
2019-04-21T23:37:50.315Z,9.50
2019-04-21T23:40:17.612Z,9.73
2019-04-21T23:42:42.438Z,9.67
2019-04-21T23:45:10.229Z,10.33
2019-04-21T23:47:50.850Z,10.43
2019-04-21T23:50:23.566Z,9.07
2019-04-21T23:52:37.486Z,9.97
2019-04-21T23:55:07.336Z,9.60
2019-04-21T23:57:40.938Z,9.60
